Time;durP1;ratioP1;P1;durP2;ratioP2;P2;SDS_P1;SDS_P2;PMS_P1;PMS_P2;Temp;Humidity;BMP_temperature;BMP_pressure;BME280_temperature;BME280_humidity;BME280_pressure;Samples;Min_cycle;Max_cycle;Signal;HPM_P1;HPM_P2
2023/04/10 00:00:32;;;;;;;20.63;16.63;;;4.40;91.20;;;4.70;75.43;98711.34;4989926;28;20460;-70
2023/04/10 00:03:01;;;;;;;23.30;17.00;;;4.50;91.20;;;4.48;76.26;98686.84;4989819;28;20474;-69
2023/04/10 00:05:28;;;;;;;25.47;18.03;;;4.50;90.90;;;4.42;76.13;98674.94;4985473;28;20887;-70
2023/04/10 00:07:56;;;;;;;21.70;17.33;;;4.50;90.70;;;4.61;75.30;98699.78;4982894;28;20469;-71
2023/04/10 00:10:25;;;;;;;21.60;16.23;;;4.50;90.80;;;4.60;76.43;98698.09;4988283;28;20455;-70
2023/04/10 00:12:52;;;;;;;22.23;17.03;;;4.50;91.00;;;4.43;76.80;98689.16;4989584;28;20921;-70
2023/04/10 00:15:20;;;;;;;26.57;18.53;;;4.40;91.10;;;4.40;76.73;98698.34;4987285;28;20460;-70
2023/04/10 00:17:49;;;;;;;25.63;17.87;;;4.40;91.40;;;4.50;76.31;98708.94;4988095;28;20451;-70
2023/04/10 00:20:18;;;;;;;25.37;18.47;;;4.40;91.30;;;4.52;75.79;98702.44;4986157;28;20500;-70
2023/04/10 00:22:45;;;;;;;20.53;16.77;;;4.30;91.30;;;4.46;76.36;98692.34;4985298;28;20575;-70
2023/04/10 00:25:12;;;;;;;23.27;17.80;;;4.20;91.60;;;4.48;76.23;98695.72;4987366;28;20487;-70
2023/04/10 00:27:39;;;;;;;24.70;19.37;;;4.20;92.20;;;4.41;76.98;98689.31;4988112;28;20829;-70
2023/04/10 00:30:08;;;;;;;27.00;19.97;;;4.10;92.20;;;4.15;76.36;98631.31;4988675;28;20560;-70
2023/04/10 00:32:35;;;;;;;28.80;20.87;;;4.10;92.60;;;4.44;76.50;98682.81;4988752;28;20454;-70
2023/04/10 00:35:03;;;;;;;29.90;21.37;;;4.10;93.00;;;4.38;77.00;98684.28;4978485;28;20846;-70
2023/04/10 00:37:31;;;;;;;31.30;21.97;;;4.00;93.00;;;4.36;77.17;98687.13;4981346;28;20527;-70
2023/04/10 00:39:59;;;;;;;29.07;22.47;;;3.90;94.30;;;4.37;77.17;98682.63;4988663;28;20459;-69
2023/04/10 00:42:26;;;;;;;24.67;19.10;;;4.10;93.80;;;4.32;76.82;98684.91;4987807;28;20483;-69
2023/04/10 00:44:54;;;;;;;24.23;19.00;;;4.10;93.20;;;4.23;77.56;98676.84;4985656;28;20452;-68
2023/04/10 00:47:21;;;;;;;21.33;15.90;;;4.20;92.90;;;4.37;77.07;98672.75;4989596;28;20458;-68
2023/04/10 00:49:49;;;;;;;22.33;17.87;;;4.20;92.30;;;4.18;77.71;98667.63;4986697;28;20453;-69
2023/04/10 00:52:16;;;;;;;23.40;17.80;;;4.20;92.90;;;4.24;77.90;98667.84;4981252;28;21277;-69
2023/04/10 00:54:45;;;;;;;27.20;19.80;;;4.10;92.60;;;4.12;77.76;98666.41;4985174;28;20477;-68
2023/04/10 00:57:12;;;;;;;25.90;19.73;;;4.10;92.90;;;3.88;77.48;98613.63;4984605;28;20921;-68
2023/04/10 00:59:40;;;;;;;30.50;21.63;;;4.10;92.90;;;4.22;78.07;98667.16;4987264;28;20535;-69
2023/04/10 01:02:07;;;;;;;32.17;21.43;;;4.00;93.60;;;4.11;78.37;98667.41;4988137;28;20473;-69
2023/04/10 01:04:34;;;;;;;28.63;20.70;;;3.90;93.40;;;4.09;77.92;98674.75;4986678;28;21040;-68
2023/04/10 01:07:13;;;;;;;30.33;21.40;;;3.80;94.00;;;4.18;77.93;98671.16;4976531;28;20454;-70
2023/04/10 01:09:48;;;;;;;22.83;18.20;;;3.70;95.30;;;4.18;77.89;98672.97;4986961;28;20931;-71
2023/04/10 01:12:33;;;;;;;25.47;18.57;;;3.80;95.10;;;4.25;77.06;98680.22;4987630;28;20482;-69
2023/04/10 01:15:07;;;;;;;25.47;18.83;;;3.80;94.90;;;4.22;77.92;98675.19;4986852;28;20488;-70
2023/04/10 01:17:44;;;;;;;26.10;18.93;;;3.90;94.00;;;4.24;77.93;98675.84;4989016;28;20456;-70
2023/04/10 01:20:15;;;;;;;24.97;17.97;;;4.00;93.50;;;4.18;77.28;98672.97;4985573;28;20450;-70
2023/04/10 01:23:07;;;;;;;22.33;16.20;;;4.00;93.00;;;4.18;77.48;98673.81;4982978;28;20504;-69
2023/04/10 01:25:49;;;;;;;23.30;16.97;;;4.10;93.10;;;4.03;78.12;98670.06;4982774;28;20545;-68
2023/04/10 01:28:59;;;;;;;23.30;17.93;;;4.10;93.00;;;4.07;78.10;98668.75;4989086;28;20461;-69
2023/04/10 01:31:35;;;;;;;21.63;17.83;;;4.10;93.10;;;4.09;78.58;98669.41;4986051;28;20461;-69
2023/04/10 01:34:08;;;;;;;21.80;17.07;;;4.00;93.20;;;3.96;78.88;98661.81;4982051;28;20470;-68
2023/04/10 01:36:42;;;;;;;21.60;15.93;;;4.00;93.30;;;4.07;78.53;98661.53;4985503;28;20457;-70
2023/04/10 01:39:10;;;;;;;23.27;17.47;;;4.00;93.30;;;3.92;78.83;98663.97;4981434;28;20468;-69
2023/04/10 01:41:41;;;;;;;24.30;16.80;;;4.00;93.50;;;4.01;79.01;98664.00;4982934;28;20543;-70
2023/04/10 01:44:14;;;;;;;22.63;18.00;;;3.90;93.80;;;4.02;78.76;98668.34;4985365;28;20543;-70
2023/04/10 01:46:44;;;;;;;22.27;18.40;;;3.90;93.80;;;4.04;77.98;98671.72;4985340;28;20461;-70
2023/04/10 01:49:12;;;;;;;21.97;16.70;;;3.90;93.80;;;3.67;78.87;98623.69;4982316;28;20464;-69
2023/04/10 01:51:39;;;;;;;20.60;16.80;;;3.80;94.00;;;3.99;79.01;98674.03;4979379;28;20506;-69
2023/04/10 01:54:07;;;;;;;21.57;17.40;;;3.70;93.80;;;3.95;77.89;98673.50;4985735;28;20504;-71
2023/04/10 01:56:35;;;;;;;25.57;17.27;;;3.70;94.70;;;3.90;78.31;98675.81;4985472;28;20529;-70
2023/04/10 01:59:04;;;;;;;22.77;17.00;;;3.70;94.60;;;3.86;78.61;98683.28;4983771;28;20492;-70
2023/04/10 02:01:32;;;;;;;24.57;17.33;;;3.70;94.30;;;3.82;78.81;98679.25;4982487;28;20477;-69
2023/04/10 02:04:00;;;;;;;23.60;19.40;;;3.70;94.60;;;3.74;78.96;98688.03;4985118;28;20484;-69
2023/04/10 02:06:40;;;;;;;22.87;17.10;;;3.60;95.20;;;3.71;79.85;98676.81;4983604;28;20466;-69
2023/04/10 02:09:21;;;;;;;23.93;17.93;;;3.60;95.50;;;3.63;80.00;98669.56;4995991;28;20484;-69
2023/04/10 02:11:55;;;;;;;21.90;17.47;;;3.60;95.50;;;3.67;79.47;98671.78;4984379;28;20520;-70
2023/04/10 02:14:27;;;;;;;24.03;16.80;;;3.60;95.40;;;3.67;79.82;98666.44;4999855;28;20793;-69
2023/04/10 02:16:57;;;;;;;23.03;17.80;;;3.50;95.60;;;3.62;80.19;98674.09;4987062;28;20461;-69
2023/04/10 02:19:27;;;;;;;23.03;17.13;;;3.40;95.30;;;3.64;80.02;98669.44;4983532;28;20462;-69
2023/04/10 02:21:55;;;;;;;25.43;19.03;;;3.40;96.70;;;3.49;80.25;98670.97;4982593;28;20461;-69
2023/04/10 02:24:23;;;;;;;22.10;17.00;;;3.20;96.60;;;3.40;80.96;98680.75;4982628;28;20472;-68
2023/04/10 02:26:52;;;;;;;23.87;16.77;;;3.10;97.60;;;3.37;81.06;98670.38;4990218;28;20456;-71
2023/04/10 02:29:20;;;;;;;24.47;17.60;;;3.00;99.00;;;3.43;80.73;98671.59;4990096;28;20458;-69
2023/04/10 02:31:47;;;;;;;26.97;19.03;;;3.00;99.90;;;3.43;80.27;98667.09;4991076;28;20460;-70
2023/04/10 02:34:16;;;;;;;25.63;18.87;;;3.10;99.90;;;3.47;80.22;98686.31;4986349;28;20617;-69
2023/04/10 02:36:43;;;;;;;25.00;18.33;;;3.10;99.90;;;3.37;80.84;98675.72;4984374;28;20941;-70
2023/04/10 02:39:10;;;;;;;24.80;17.53;;;3.00;99.90;;;3.26;81.11;98682.09;4990156;28;20450;-69
2023/04/10 02:41:38;;;;;;;22.20;17.00;;;2.90;99.90;;;3.23;80.89;98680.59;4991160;28;20456;-69
2023/04/10 02:44:05;;;;;;;24.43;17.83;;;2.90;99.90;;;3.13;81.68;98695.03;4988907;28;20476;-70
2023/04/10 02:46:33;;;;;;;25.33;17.60;;;2.90;99.90;;;3.22;81.39;98678.06;4982829;28;20453;-69
2023/04/10 02:49:00;;;;;;;23.13;17.83;;;2.90;99.90;;;3.12;81.80;98694.16;4985583;28;20467;-70
2023/04/10 02:51:29;;;;;;;25.07;18.53;;;2.80;99.90;;;3.14;81.77;98691.38;4988365;28;20466;-68
2023/04/10 02:53:57;;;;;;;21.47;17.23;;;2.70;99.90;;;3.21;81.05;98681.75;4987751;28;20576;-69
2023/04/10 02:56:24;;;;;;;24.60;17.30;;;2.70;99.90;;;3.26;80.71;98690.13;4987668;28;20457;-67
2023/04/10 02:58:51;;;;;;;23.17;17.20;;;2.80;99.90;;;3.23;81.15;98680.59;4988143;28;20980;-69
2023/04/10 03:01:19;;;;;;;27.43;19.17;;;3.00;99.90;;;2.86;80.96;98613.97;4987255;28;20893;-69
2023/04/10 03:03:46;;;;;;;27.17;18.57;;;3.10;99.90;;;3.21;81.05;98681.75;4985493;28;20472;-70
2023/04/10 03:06:13;;;;;;;23.97;18.07;;;3.10;99.30;;;3.17;81.88;98688.38;4984740;28;21057;-70
2023/04/10 03:08:42;;;;;;;24.40;18.87;;;3.10;98.60;;;3.17;81.23;98685.72;4984697;28;20504;-69
2023/04/10 03:11:09;;;;;;;27.57;19.30;;;3.00;99.40;;;3.07;81.47;98670.59;4986428;28;20465;-70
2023/04/10 03:13:36;;;;;;;25.50;18.03;;;3.00;99.20;;;3.01;81.73;98676.53;4984975;28;20463;-68
2023/04/10 03:16:04;;;;;;;24.70;17.70;;;2.80;98.70;;;3.01;81.67;98679.22;4978546;28;20457;-68
2023/04/10 03:18:33;;;;;;;23.93;17.73;;;2.70;99.90;;;2.95;nan;98664.63;4983468;28;20938;-69
2023/04/10 03:21:00;;;;;;;26.20;18.60;;;2.80;99.90;;;2.98;82.27;98687.53;4968217;28;20554;-69
2023/04/10 03:23:28;;;;;;;25.33;18.90;;;2.90;99.90;;;2.96;82.47;98670.81;4988216;28;20472;-70
2023/04/10 03:25:56;;;;;;;29.03;19.00;;;3.00;99.90;;;2.99;82.20;98678.53;4982623;28;20511;-69
2023/04/10 03:28:24;;;;;;;24.27;18.57;;;3.00;99.90;;;3.04;82.94;98675.41;4986128;28;20468;-70
2023/04/10 03:30:51;;;;;;;31.13;19.20;;;3.00;99.90;;;2.82;82.95;98665.00;4985405;28;20536;-69
2023/04/10 03:33:18;;;;;;;27.23;19.63;;;3.00;99.90;;;2.95;82.42;98671.78;4984564;28;20515;-68
2023/04/10 03:35:46;;;;;;;24.67;19.10;;;3.00;99.90;;;2.86;82.41;98662.03;4982433;28;20460;-69
2023/04/10 03:38:13;;;;;;;27.30;20.00;;;2.90;99.90;;;2.89;83.12;98656.38;4982347;28;20453;-69
2023/04/10 03:40:40;;;;;;;23.97;18.20;;;2.90;99.90;;;2.97;82.80;98665.31;4983973;28;20480;-69
2023/04/10 03:43:09;;;;;;;26.13;18.17;;;2.90;99.90;;;3.08;82.15;98661.59;4985676;28;20481;-70
2023/04/10 03:45:36;;;;;;;26.00;18.70;;;2.80;99.90;;;3.02;81.94;98656.00;4982964;28;20923;-70
2023/04/10 03:48:04;;;;;;;24.23;17.80;;;2.80;99.90;;;3.06;81.46;98663.56;4985176;28;20460;-70
2023/04/10 03:50:31;;;;;;;30.17;20.00;;;2.70;99.90;;;2.94;82.15;98665.63;4982790;28;20467;-69
2023/04/10 03:52:58;;;;;;;24.43;18.60;;;2.70;99.90;;;2.90;82.40;98658.06;4987490;28;20460;-69
2023/04/10 03:55:25;;;;;;;24.43;18.23;;;2.60;99.90;;;2.86;82.93;98670.84;4988466;28;20573;-70
2023/04/10 03:57:53;;;;;;;24.70;19.23;;;2.60;99.90;;;2.73;82.68;98668.56;4989078;28;20468;-70
2023/04/10 04:00:21;;;;;;;25.33;19.40;;;2.60;99.90;;;2.81;82.78;98666.00;4982926;28;20977;-70
2023/04/10 04:02:50;;;;;;;26.73;19.40;;;2.60;99.90;;;2.58;82.85;98643.38;4987427;28;20492;-70
2023/04/10 04:05:18;;;;;;;27.00;18.87;;;2.50;99.90;;;2.71;82.71;98670.53;4984602;28;20464;-70
2023/04/10 04:07:45;;;;;;;24.10;18.57;;;2.50;99.90;;;2.69;83.18;98661.84;4989419;28;20935;-70
2023/04/10 04:10:12;;;;;;;28.47;18.97;;;2.50;99.90;;;2.67;83.09;98666.50;4988545;28;20482;-70
2023/04/10 04:12:40;;;;;;;25.30;19.20;;;2.50;99.90;;;2.66;83.19;98667.50;4984196;28;21231;-70
2023/04/10 04:15:08;;;;;;;29.77;19.40;;;2.50;99.90;;;2.71;82.71;98664.34;4988058;28;20518;-68
2023/04/10 04:17:37;;;;;;;27.13;19.00;;;2.50;99.90;;;2.17;82.54;98601.03;4985724;28;20530;-69
2023/04/10 04:20:06;;;;;;;27.10;18.53;;;2.40;99.90;;;2.59;82.79;98663.72;4989575;28;20479;-70
2023/04/10 04:22:33;;;;;;;26.70;18.20;;;2.40;99.90;;;2.53;83.10;98668.66;4989013;28;20546;-68
2023/04/10 04:25:01;;;;;;;27.20;18.77;;;2.30;99.90;;;2.39;84.05;98645.16;4988424;28;20479;-70
2023/04/10 04:27:28;;;;;;;27.77;18.80;;;2.40;99.90;;;2.19;83.57;98631.06;4984155;28;20515;-69
2023/04/10 04:29:55;;;;;;;28.57;19.73;;;2.30;99.90;;;2.43;83.58;98651.84;5002528;28;20588;-71
2023/04/10 04:32:22;;;;;;;27.17;19.87;;;2.30;99.90;;;2.34;83.92;98663.41;4981629;28;20793;-70
2023/04/10 04:34:51;;;;;;;29.47;19.70;;;2.30;99.90;;;2.35;83.68;98673.06;4981380;28;21232;-68
2023/04/10 04:37:18;;;;;;;28.30;19.90;;;2.20;99.90;;;2.33;84.06;98667.06;4989755;28;21698;-70
2023/04/10 04:39:45;;;;;;;22.00;18.33;;;2.20;99.90;;;2.47;83.81;98676.41;4991766;28;20465;-69
2023/04/10 04:42:12;;;;;;;28.33;19.33;;;2.30;99.90;;;2.45;83.80;98673.88;4988001;28;20504;-71
2023/04/10 04:44:40;;;;;;;30.43;19.87;;;2.20;99.90;;;2.46;83.47;98672.91;4985298;28;20566;-70
2023/04/10 04:47:07;;;;;;;28.00;19.70;;;2.20;99.90;;;2.52;83.13;98683.00;4986834;28;21386;-69
2023/04/10 04:49:34;;;;;;;25.43;19.03;;;2.30;99.90;;;2.41;84.11;98676.00;4990387;28;20455;-70
2023/04/10 04:52:03;;;;;;;30.43;19.77;;;2.30;99.90;;;2.45;84.17;98687.22;4989045;28;20463;-70
2023/04/10 04:54:30;;;;;;;26.70;20.57;;;2.40;99.90;;;2.77;83.14;98682.44;4991583;28;20460;-70
2023/04/10 04:56:57;;;;;;;28.00;19.50;;;2.60;99.90;;;2.87;82.03;98687.72;4991050;28;20689;-69
2023/04/10 04:59:24;;;;;;;25.30;19.87;;;2.90;99.90;;;3.26;81.53;98682.09;4991909;28;20487;-70
2023/04/10 05:01:52;;;;;;;29.87;19.13;;;3.20;98.10;;;3.63;79.19;98696.31;4983200;28;20456;-70
2023/04/10 05:04:20;;;;;;;24.27;18.10;;;3.50;96.20;;;3.97;78.18;98693.72;4987455;28;20590;-69
2023/04/10 05:06:47;;;;;;;27.70;18.70;;;3.80;94.50;;;4.08;77.16;98694.47;4985903;28;20553;-69
2023/04/10 05:09:15;;;;;;;24.90;18.60;;;4.10;92.20;;;4.16;76.67;98686.50;4989739;28;20460;-68
2023/04/10 05:11:42;;;;;;;26.40;18.40;;;4.30;90.20;;;4.54;75.43;98697.75;4987192;28;20544;-71
2023/04/10 05:14:10;;;;;;;21.13;17.30;;;4.60;90.20;;;4.82;74.61;98692.19;4992309;28;20936;-70
2023/04/10 05:16:37;;;;;;;24.33;17.90;;;4.80;88.20;;;5.05;74.20;98696.94;4986234;28;20856;-71
2023/04/10 05:19:05;;;;;;;22.77;16.93;;;5.10;86.60;;;5.63;71.58;98707.75;4997909;28;20492;-69
2023/04/10 05:21:32;;;;;;;23.00;16.80;;;5.70;83.80;;;5.56;71.24;98688.00;5002670;28;20448;-69
2023/04/10 05:23:59;;;;;;;19.00;15.80;;;5.90;82.50;;;6.00;69.50;98710.13;4988704;28;20497;-69
2023/04/10 05:26:27;;;;;;;21.50;16.17;;;6.30;81.70;;;6.12;69.49;98706.09;4987210;28;21027;-70
2023/04/10 05:28:54;;;;;;;19.97;15.90;;;6.60;80.10;;;6.37;68.00;98692.63;5000613;28;21044;-69
2023/04/10 05:31:22;;;;;;;21.00;16.33;;;6.80;79.20;;;6.34;68.26;98691.13;4984663;28;20447;-70
2023/04/10 05:33:48;;;;;;;21.37;16.90;;;6.90;78.50;;;6.54;67.24;98689.91;4991019;28;20544;-71
2023/04/10 05:36:17;;;;;;;21.00;16.33;;;7.00;78.20;;;5.87;68.31;98694.50;4990862;28;20459;-71
2023/04/10 05:38:44;;;;;;;19.50;15.50;;;6.60;77.70;;;4.98;71.41;98685.22;4991054;28;20539;-71
2023/04/10 05:41:11;;;;;;;21.30;16.90;;;5.80;79.10;;;4.50;73.98;98688.38;4979542;28;20464;-69
2023/04/10 05:43:40;;;;;;;20.63;16.93;;;5.00;82.00;;;4.18;75.78;98684.53;4983256;28;20483;-70
2023/04/10 05:46:07;;;;;;;24.00;17.70;;;4.50;85.40;;;3.90;77.37;98673.97;4995677;28;20955;-69
2023/04/10 05:48:35;;;;;;;21.07;16.60;;;4.30;88.50;;;4.09;76.84;98677.44;4979643;28;20461;-70
2023/04/10 05:51:02;;;;;;;24.43;17.30;;;4.10;90.40;;;4.23;76.64;98682.22;4987170;28;20464;-69
2023/04/10 05:53:31;;;;;;;26.87;18.47;;;4.20;90.50;;;4.20;77.11;98687.88;4973944;28;21052;-65
2023/04/10 05:55:59;;;;;;;25.70;19.17;;;4.30;90.50;;;4.27;77.43;98679.22;4980942;28;20465;-70
2023/04/10 05:58:26;;;;;;;22.23;17.67;;;4.30;90.50;;;4.19;76.93;98683.53;4980300;28;21058;-69
2023/04/10 06:00:56;;;;;;;25.07;19.00;;;4.40;90.30;;;4.21;77.40;98684.22;4985874;28;20457;-69
2023/04/10 06:03:23;;;;;;;28.47;17.50;;;4.40;90.60;;;4.43;76.74;98686.50;4984385;28;20461;-69
2023/04/10 06:05:50;;;;;;;22.63;18.30;;;4.50;90.20;;;4.65;76.33;98691.28;4984425;28;20496;-69
2023/04/10 06:08:18;;;;;;;21.60;17.27;;;4.60;90.20;;;4.74;75.17;98683.28;4984153;28;20485;-68
2023/04/10 06:10:46;;;;;;;25.93;18.80;;;4.70;89.50;;;5.12;74.91;98675.69;4986852;28;20453;-67
2023/04/10 06:13:13;;;;;;;24.20;17.40;;;4.90;89.50;;;5.17;73.06;98635.88;4984548;28;20452;-70
2023/04/10 06:15:41;;;;;;;23.60;17.83;;;5.20;88.00;;;5.55;72.93;98675.59;4978334;28;20469;-68
2023/04/10 06:18:09;;;;;;;21.20;17.10;;;5.40;86.70;;;5.59;73.26;98684.13;4984238;28;20455;-70
2023/04/10 06:20:37;;;;;;;28.50;18.07;;;5.50;85.80;;;5.81;72.29;98679.94;4978323;28;21010;-68
2023/04/10 06:23:04;;;;;;;23.10;16.90;;;5.60;85.20;;;6.16;71.81;98671.72;5000680;28;20537;-69
2023/04/10 06:25:32;;;;;;;23.90;19.10;;;5.80;85.30;;;6.17;70.12;98676.91;4977125;28;20478;-66
2023/04/10 06:27:59;;;;;;;21.27;16.50;;;6.00;83.40;;;6.17;71.27;98674.22;4984499;28;20511;-68
2023/04/10 06:30:26;;;;;;;20.20;17.37;;;6.00;83.00;;;6.07;71.17;98673.56;4983277;28;20464;-66
2023/04/10 06:32:53;;;;;;;19.53;15.67;;;6.10;82.80;;;6.22;71.30;98671.88;4985486;28;20520;-66
2023/04/10 06:35:21;;;;;;;20.60;16.10;;;6.10;83.10;;;6.42;70.53;98674.16;4983167;28;20962;-68
2023/04/10 06:37:49;;;;;;;21.03;16.40;;;6.20;83.10;;;6.50;70.18;98678.66;4985359;28;20485;-69
2023/04/10 06:40:16;;;;;;;18.43;15.57;;;6.30;82.70;;;6.59;69.92;98676.78;4978322;28;20939;-69
2023/04/10 06:42:43;;;;;;;21.83;17.47;;;6.40;82.30;;;6.99;69.20;98676.78;4982594;28;20577;-67
2023/04/10 06:45:11;;;;;;;22.43;17.50;;;6.60;82.60;;;7.21;68.55;98667.09;4980512;28;20481;-66
2023/04/10 06:47:38;;;;;;;20.67;17.27;;;6.80;82.50;;;7.40;67.73;98673.84;4998365;28;20461;-65
2023/04/10 06:50:06;;;;;;;19.83;16.97;;;7.00;82.00;;;7.30;67.63;98665.19;4984681;28;20547;-68
2023/04/10 06:52:35;;;;;;;18.00;15.67;;;7.10;81.20;;;7.32;68.12;98665.84;4980876;28;20487;-65
2023/04/10 06:55:02;;;;;;;21.63;16.83;;;7.10;81.10;;;7.33;67.98;98662.97;4986614;28;20463;-66
2023/04/10 06:57:29;;;;;;;18.40;15.10;;;7.10;81.10;;;7.65;67.22;98661.03;4982042;28;20538;-66
2023/04/10 06:59:56;;;;;;;18.93;16.00;;;7.30;81.00;;;7.74;66.65;98667.22;4979791;28;20453;-65
2023/04/10 07:02:23;;;;;;;18.60;15.00;;;7.60;80.20;;;7.37;67.67;98668.81;4981632;28;20511;-67
2023/04/10 07:04:52;;;;;;;20.60;16.83;;;7.50;80.00;;;7.79;66.89;98666.63;4982141;28;20479;-66
2023/04/10 07:07:19;;;;;;;18.50;15.50;;;7.60;80.30;;;8.13;66.73;98668.03;4982654;28;20471;-65
2023/04/10 07:09:48;;;;;;;20.63;15.70;;;7.90;80.70;;;8.19;65.30;98671.84;4977494;28;20463;-65
2023/04/10 07:12:15;;;;;;;18.90;15.50;;;8.00;79.50;;;8.31;65.35;98669.53;4981674;28;20573;-65
2023/04/10 07:14:43;;;;;;;18.30;15.77;;;8.20;79.40;;;8.57;64.52;98670.94;4987241;28;21202;-69
2023/04/10 07:17:10;;;;;;;19.27;14.73;;;8.30;79.00;;;8.59;63.77;98671.59;4981345;28;20463;-66
2023/04/10 07:19:37;;;;;;;16.80;14.90;;;8.40;78.20;;;8.42;63.75;98670.91;4999343;28;20487;-66
2023/04/10 07:22:05;;;;;;;16.93;14.50;;;8.40;78.10;;;8.56;64.53;98666.56;4976727;28;20462;-66
2023/04/10 07:24:32;;;;;;;17.13;15.33;;;8.50;77.90;;;8.98;62.58;98666.91;4981821;28;20494;-67
2023/04/10 07:27:00;;;;;;;17.57;14.90;;;8.70;77.50;;;9.21;61.67;98674.84;4978915;28;20606;-67
2023/04/10 07:29:27;;;;;;;17.27;14.77;;;8.90;77.40;;;9.45;61.06;98665.56;4981567;28;20466;-65
2023/04/10 07:31:55;;;;;;;16.07;13.93;;;9.10;76.80;;;9.23;60.78;98637.75;4981005;28;20501;-66
2023/04/10 07:34:22;;;;;;;18.07;15.23;;;9.20;76.10;;;9.72;60.29;98664.97;4980614;28;20555;-68
2023/04/10 07:36:49;;;;;;;16.07;14.37;;;9.40;76.00;;;9.47;60.12;98657.25;4978204;28;20473;-65
2023/04/10 07:39:17;;;;;;;15.50;13.83;;;9.40;75.50;;;9.52;61.27;98653.97;4977230;28;20444;-66
2023/04/10 07:41:44;;;;;;;19.40;15.27;;;9.40;75.60;;;9.64;59.43;98652.44;4980714;28;20458;-67
2023/04/10 07:44:13;;;;;;;14.10;12.43;;;9.50;74.70;;;9.29;60.48;98634.25;4982630;28;20534;-66
2023/04/10 07:46:41;;;;;;;17.20;14.30;;;9.40;74.10;;;9.40;60.03;98640.19;4984283;28;20946;-65
2023/04/10 07:49:08;;;;;;;15.70;14.00;;;9.40;74.10;;;9.81;58.70;98642.22;4984741;28;20660;-67
2023/04/10 07:51:35;;;;;;;17.20;14.47;;;9.60;74.10;;;10.01;58.54;98625.31;4985292;28;20448;-65
2023/04/10 07:54:04;;;;;;;15.80;13.87;;;9.80;74.00;;;10.14;58.37;98630.81;4985551;28;20488;-66
2023/04/10 07:56:31;;;;;;;14.10;12.60;;;10.00;72.10;;;10.17;57.37;98635.00;4981199;28;20834;-66
2023/04/10 07:59:00;;;;;;;15.10;13.37;;;10.00;72.00;;;10.01;58.33;98620.78;4984782;28;20468;-66
2023/04/10 08:01:28;;;;;;;15.40;13.37;;;10.10;71.60;;;10.17;57.81;98635.81;4983693;28;20463;-67
2023/04/10 08:03:56;;;;;;;14.73;12.60;;;10.10;71.20;;;10.25;56.86;98631.31;4986869;28;20466;-67
2023/04/10 08:06:23;;;;;;;13.37;11.30;;;10.20;70.60;;;10.44;56.32;98625.22;4987184;28;20533;-67
2023/04/10 08:08:51;;;;;;;15.93;12.50;;;10.30;70.50;;;10.67;55.83;98631.34;4986754;28;20502;-65
2023/04/10 08:11:26;;;;;;;13.60;11.67;;;10.50;70.10;;;10.74;55.74;98627.66;4986189;28;20485;-66
2023/04/10 08:13:54;;;;;;;13.20;11.57;;;10.70;69.40;;;10.76;55.41;98627.41;4986793;28;20493;-66
2023/04/10 08:16:24;;;;;;;12.83;11.50;;;10.70;69.30;;;11.05;54.61;98626.28;4981707;28;20859;-66
2023/04/10 08:18:54;;;;;;;12.10;10.83;;;10.80;68.30;;;11.24;53.77;98613.00;4986797;28;20975;-66
2023/04/10 08:21:23;;;;;;;11.80;10.60;;;11.00;67.90;;;11.29;53.56;98637.56;4987963;28;20518;-65
2023/04/10 08:23:50;;;;;;;11.73;10.43;;;11.20;66.70;;;11.00;53.16;98628.78;4983690;28;20894;-66
2023/04/10 08:26:18;;;;;;;13.77;10.47;;;11.10;66.00;;;11.31;52.82;98638.22;4985726;28;21002;-66
2023/04/10 08:28:49;;;;;;;12.77;11.40;;;11.20;65.80;;;11.28;52.70;98618.84;4985032;28;20449;-66
2023/04/10 08:31:16;;;;;;;12.13;10.93;;;11.30;65.40;;;11.32;52.21;98631.78;4985276;28;20526;-66
2023/04/10 08:33:43;;;;;;;11.30;10.10;;;11.30;64.50;;;11.19;52.42;98632.56;4987792;28;20539;-65
2023/04/10 08:36:14;;;;;;;11.03;9.90;;;11.20;64.00;;;11.09;52.61;98626.72;4984253;28;20519;-67
2023/04/10 08:38:42;;;;;;;11.83;10.57;;;11.10;63.80;;;11.27;52.29;98619.91;4986527;28;20460;-67
2023/04/10 08:41:11;;;;;;;12.50;11.20;;;11.10;63.60;;;11.17;52.54;98617.59;4985236;28;20458;-67
2023/04/10 08:43:38;;;;;;;11.97;10.40;;;11.20;63.50;;;11.26;51.89;98621.75;4971037;28;20552;-64
2023/04/10 08:46:06;;;;;;;10.33;9.23;;;11.20;63.10;;;11.28;52.02;98618.84;4977892;28;20936;-66
2023/04/10 08:48:39;;;;;;;11.00;9.90;;;11.30;62.80;;;11.57;51.16;98627.63;4997197;28;20453;-66
2023/04/10 08:51:15;;;;;;;10.87;9.77;;;11.40;62.90;;;11.56;51.07;98621.38;4978662;28;20467;-67
2023/04/10 08:53:44;;;;;;;10.57;9.47;;;11.50;62.20;;;11.67;50.52;98610.97;4983537;28;20458;-67
2023/04/10 08:56:14;;;;;;;11.00;9.83;;;11.50;61.60;;;11.45;50.99;98619.31;4980543;28;20455;-67
2023/04/10 08:58:42;;;;;;;11.70;10.27;;;11.50;61.30;;;11.72;49.94;98603.91;4982724;28;21108;-65
2023/04/10 09:01:11;;;;;;;9.20;8.30;;;11.60;61.00;;;11.77;50.23;98606.81;4984035;28;20497;-67
2023/04/10 09:03:39;;;;;;;11.27;10.17;;;11.70;61.10;;;11.59;50.39;98620.13;4983984;28;20497;-64
2023/04/10 09:06:07;;;;;;;9.77;8.80;;;11.70;60.50;;;11.74;50.41;98617.22;4985173;28;20483;-65
2023/04/10 09:08:36;;;;;;;10.90;9.80;;;11.60;60.70;;;11.89;50.11;98614.31;4984779;28;20504;-66
2023/04/10 09:11:03;;;;;;;10.57;9.50;;;11.70;60.60;;;11.83;50.48;98617.84;4984640;28;20464;-66
2023/04/10 09:13:39;;;;;;;10.03;8.90;;;11.70;60.40;;;12.15;49.88;98624.31;4987162;28;20452;-65
2023/04/10 09:16:07;;;;;;;10.33;8.87;;;11.80;60.60;;;12.40;48.96;98610.09;4976533;28;20959;-66
2023/04/10 09:18:47;;;;;;;10.07;9.00;;;12.10;60.40;;;12.72;48.52;98602.06;4987907;28;20456;-66
2023/04/10 09:21:16;;;;;;;11.07;8.53;;;12.30;60.00;;;12.96;47.75;98605.06;4988337;28;20916;-65
2023/04/10 09:23:47;;;;;;;9.27;8.37;;;12.50;59.30;;;12.81;48.12;98594.50;4989880;28;20510;-67
2023/04/10 09:26:28;;;;;;;9.33;8.43;;;12.60;58.90;;;12.91;47.54;98599.44;4988993;28;20534;-66
2023/04/10 09:29:00;;;;;;;12.00;9.37;;;12.60;58.70;;;12.79;47.82;98582.19;4990123;28;20461;-64
2023/04/10 09:31:30;;;;;;;9.90;9.00;;;12.70;58.40;;;12.31;48.51;98552.59;4987727;28;20558;-66
2023/04/10 09:34:16;;;;;;;14.63;9.53;;;12.50;58.60;;;12.56;48.65;98591.69;4989488;28;20440;-65
2023/04/10 09:36:45;;;;;;;9.57;8.63;;;12.40;58.70;;;12.85;47.47;98578.63;5004962;28;20546;-66
2023/04/10 09:39:13;;;;;;;9.40;8.50;;;12.60;58.20;;;12.95;47.07;98581.69;4989699;28;20457;-67
2023/04/10 09:41:52;;;;;;;9.53;8.70;;;12.70;57.70;;;12.87;47.35;98585.50;4984124;28;20458;-66
2023/04/10 09:44:29;;;;;;;9.53;8.60;;;12.70;57.30;;;12.63;47.66;98580.81;4982434;28;20834;-66
2023/04/10 09:46:56;;;;;;;9.70;8.70;;;12.60;57.00;;;12.35;47.62;98571.94;4988154;28;20863;-66
2023/04/10 09:49:23;;;;;;;9.30;8.40;;;12.40;56.90;;;12.54;47.36;98564.78;4988743;28;20975;-67
2023/04/10 09:51:51;;;;;;;8.60;7.70;;;12.40;56.90;;;13.03;46.77;98556.19;4990339;28;20543;-67
2023/04/10 09:54:35;;;;;;;9.40;8.50;;;12.70;57.20;;;12.98;46.66;98548.72;4987706;28;20465;-67
2023/04/10 09:57:04;;;;;;;8.70;7.90;;;12.90;56.60;;;13.32;45.81;98557.47;5002266;28;20824;-67
2023/04/10 09:59:31;;;;;;;8.57;7.77;;;13.00;56.10;;;13.19;45.70;98549.41;4989355;28;20560;-65
2023/04/10 10:01:59;;;;;;;9.37;8.17;;;13.10;55.60;;;13.44;44.65;98533.19;4988590;28;20466;-66
2023/04/10 10:04:27;;;;;;;8.47;7.57;;;13.20;55.20;;;13.15;45.48;98540.06;4990143;28;20449;-68
2023/04/10 10:06:55;;;;;;;7.90;7.10;;;13.00;55.00;;;13.53;44.47;98530.22;4987264;28;20487;-69
2023/04/10 10:09:24;;;;;;;8.20;7.37;;;13.20;54.80;;;13.58;44.15;98523.06;4989087;28;20456;-68
2023/04/10 10:11:53;;;;;;;8.83;7.90;;;13.30;54.50;;;13.63;44.99;98513.41;4986736;28;20452;-67
2023/04/10 10:14:22;;;;;;;8.10;7.30;;;13.40;54.70;;;13.72;44.07;98506.63;4996749;28;21207;-67
2023/04/10 10:16:52;;;;;;;8.70;7.90;;;13.40;54.30;;;13.78;44.12;98505.75;4988985;28;20504;-67
2023/04/10 10:19:25;;;;;;;8.50;7.70;;;13.60;54.20;;;13.21;44.84;98511.22;4989243;28;20464;-66
2023/04/10 10:21:55;;;;;;;7.17;6.47;;;13.20;53.50;;;13.19;44.79;98500.59;4980804;28;20938;-67
2023/04/10 10:24:26;;;;;;;7.43;6.73;;;13.10;53.60;;;13.63;44.26;98508.78;4988618;28;20456;-67